Time;durP1;ratioP1;P1;durP2;ratioP2;P2;SDS_P1;SDS_P2;PMS_P1;PMS_P2;Temp;Humidity;BMP_temperature;BMP_pressure;BME280_temperature;BME280_humidity;BME280_pressure;Samples;Min_cycle;Max_cycle;Signal;HPM_P1;HPM_P2
2023/04/06 00:00:27;;;;;;;4.03;3.33;;;0.40;96.30;;;;;;4997821;28;20211;-92
2023/04/06 00:02:54;;;;;;;5.80;4.00;;;0.40;96.50;;;;;;4998734;28;20211;-92
2023/04/06 00:05:22;;;;;;;4.53;4.05;;;0.40;96.50;;;;;;5001064;28;20207;-92
2023/04/06 00:07:49;;;;;;;6.43;4.47;;;0.50;96.60;;;;;;5002461;28;20199;-92
2023/04/06 00:10:17;;;;;;;5.53;3.92;;;0.40;96.60;;;;;;5001624;28;20275;-92
2023/04/06 00:12:44;;;;;;;4.80;3.90;;;0.40;96.70;;;;;;5001946;28;20294;-92
2023/04/06 00:15:11;;;;;;;6.22;4.40;;;0.30;96.70;;;;;;5003271;28;20213;-91
2023/04/06 00:17:38;;;;;;;7.05;4.80;;;0.30;96.60;;;;;;5003699;28;20206;-92
2023/04/06 00:20:06;;;;;;;5.63;4.07;;;0.20;96.80;;;;;;5009101;28;20218;-92
2023/04/06 00:22:35;;;;;;;5.60;4.15;;;0.20;97.00;;;;;;5011448;28;20266;-92
2023/04/06 00:25:02;;;;;;;4.35;3.90;;;0.20;97.00;;;;;;5018332;28;20266;-93
2023/04/06 00:27:28;;;;;;;6.20;3.92;;;0.20;96.90;;;;;;5008619;28;20221;-92
2023/04/06 00:29:55;;;;;;;5.00;4.10;;;0.20;97.10;;;;;;5002558;28;20314;-92
2023/04/06 00:32:22;;;;;;;5.07;3.50;;;0.20;96.90;;;;;;4999642;28;20214;-92
2023/04/06 00:34:49;;;;;;;5.82;4.32;;;0.10;96.70;;;;;;4999767;28;20211;-92
2023/04/06 00:37:16;;;;;;;7.32;4.50;;;0.10;96.70;;;;;;4999281;28;20261;-91
2023/04/06 00:39:44;;;;;;;7.40;4.63;;;0.10;96.70;;;;;;4999800;28;20261;-91
2023/04/06 00:42:13;;;;;;;4.20;3.80;;;0.00;96.80;;;;;;5000729;28;20645;-91
2023/04/06 00:44:40;;;;;;;11.65;3.45;;;0.00;96.90;;;;;;5001212;28;20203;-92
2023/04/06 00:47:07;;;;;;;8.93;3.88;;;-0.10;97.10;;;;;;5001259;28;20200;-93
2023/04/06 00:49:34;;;;;;;4.20;3.80;;;-0.10;97.20;;;;;;5001062;28;20605;-94
2023/04/06 00:52:01;;;;;;;3.85;2.92;;;-0.10;97.70;;;;;;4999401;28;20198;-93
2023/04/06 00:54:29;;;;;;;5.05;4.28;;;-0.10;97.50;;;;;;4999729;28;20196;-93
2023/04/06 00:56:58;;;;;;;6.90;3.95;;;-0.10;97.40;;;;;;4999235;28;20210;-93
2023/04/06 00:59:24;;;;;;;4.88;3.85;;;-0.10;97.30;;;;;;4999312;28;20310;-92
2023/04/06 01:01:51;;;;;;;5.93;4.03;;;-0.20;97.70;;;;;;5000250;28;20206;-92
2023/04/06 01:04:18;;;;;;;6.95;5.32;;;-0.20;97.70;;;;;;4999564;28;20219;-92
2023/04/06 01:06:45;;;;;;;4.20;3.80;;;-0.20;97.80;;;;;;4999160;28;20211;-92
2023/04/06 01:09:12;;;;;;;4.80;3.65;;;-0.20;97.90;;;;;;5000028;28;20227;-94
2023/04/06 01:11:38;;;;;;;4.95;4.45;;;-0.20;98.00;;;;;;4999779;28;20203;-93
2023/04/06 01:14:07;;;;;;;5.35;3.85;;;-0.30;98.00;;;;;;4998640;28;20198;-92
2023/04/06 01:16:34;;;;;;;5.43;3.85;;;-0.30;97.90;;;;;;4999178;28;20207;-92
2023/04/06 01:19:01;;;;;;;4.43;3.33;;;-0.30;97.90;;;;;;4999160;28;20227;-92
2023/04/06 01:21:28;;;;;;;8.07;4.28;;;-0.30;98.10;;;;;;4999544;28;20211;-93
2023/04/06 01:23:56;;;;;;;3.92;3.50;;;-0.30;98.10;;;;;;4999278;28;20297;-93
2023/04/06 01:26:23;;;;;;;5.18;3.75;;;-0.30;98.10;;;;;;5000194;28;20603;-92
2023/04/06 01:28:49;;;;;;;6.35;4.78;;;-0.30;98.10;;;;;;4998746;28;20227;-93
2023/04/06 01:31:16;;;;;;;6.00;3.88;;;-0.20;97.90;;;;;;4999831;28;20294;-93
2023/04/06 01:33:43;;;;;;;4.35;3.72;;;-0.30;97.90;;;;;;4999528;28;20652;-93
2023/04/06 01:36:10;;;;;;;5.28;3.95;;;-0.40;97.80;;;;;;4998530;28;20215;-92
2023/04/06 01:38:37;;;;;;;5.30;3.60;;;-0.40;97.90;;;;;;4999168;28;20233;-93
2023/04/06 01:41:05;;;;;;;4.20;3.78;;;-0.50;98.10;;;;;;4999627;28;20617;-93
2023/04/06 01:43:31;;;;;;;3.90;3.45;;;-0.50;98.30;;;;;;4998865;28;20715;-94
2023/04/06 01:45:58;;;;;;;6.75;4.13;;;-0.50;98.50;;;;;;4999552;28;20201;-93
2023/04/06 01:48:25;;;;;;;4.40;4.00;;;-0.60;98.80;;;;;;5000663;28;20226;-94
2023/04/06 01:50:52;;;;;;;5.13;3.45;;;-0.60;98.90;;;;;;5012962;28;20208;-92
2023/04/06 01:53:19;;;;;;;3.80;3.13;;;-0.60;98.80;;;;;;5018365;28;20195;-92
2023/04/06 01:55:46;;;;;;;4.57;3.85;;;-0.60;98.80;;;;;;5018513;28;20187;-91
2023/04/06 01:58:14;;;;;;;5.03;3.30;;;-0.70;98.80;;;;;;5002583;28;20211;-91
2023/04/06 02:00:41;;;;;;;5.05;3.60;;;-0.70;98.80;;;;;;5004719;28;20263;-92
2023/04/06 02:03:08;;;;;;;4.75;4.25;;;-0.70;98.80;;;;;;5001548;28;20211;-92
2023/04/06 02:05:37;;;;;;;4.18;3.58;;;-0.70;98.80;;;;;;5000042;28;20693;-93
2023/04/06 02:08:07;;;;;;;9.98;4.20;;;-0.80;98.80;;;;;;4999614;28;20227;-92
2023/04/06 02:10:33;;;;;;;5.00;4.50;;;-0.80;99.00;;;;;;4998170;28;20223;-91
2023/04/06 02:13:00;;;;;;;4.88;3.75;;;-0.80;99.00;;;;;;4998146;28;20281;-91
2023/04/06 02:15:29;;;;;;;4.35;3.35;;;-0.80;99.20;;;;;;4998461;28;20214;-92
2023/04/06 02:17:55;;;;;;;4.40;4.00;;;-0.90;99.30;;;;;;4999209;28;20218;-92
2023/04/06 02:20:25;;;;;;;6.30;4.30;;;-0.90;99.50;;;;;;5000830;28;20200;-92
2023/04/06 02:22:51;;;;;;;4.15;3.75;;;-0.90;99.70;;;;;;5000950;28;20214;-93
2023/04/06 02:25:18;;;;;;;5.32;3.75;;;-0.90;99.70;;;;;;4999921;28;20207;-92
2023/04/06 02:27:45;;;;;;;4.82;3.75;;;-0.90;99.70;;;;;;4998629;28;20697;-90
2023/04/06 02:30:12;;;;;;;6.47;4.47;;;-0.90;99.70;;;;;;4999298;28;20318;-91
2023/04/06 02:32:41;;;;;;;4.50;3.92;;;-1.00;99.70;;;;;;4999608;28;20211;-91
2023/04/06 02:35:08;;;;;;;6.15;4.80;;;-1.00;99.80;;;;;;4999647;28;20217;-92
2023/04/06 02:37:35;;;;;;;6.60;4.63;;;-1.00;99.90;;;;;;4999554;28;20203;-91
2023/04/06 02:40:02;;;;;;;7.78;4.57;;;-1.00;99.90;;;;;;5032958;23;20226;-94
2023/04/06 02:42:29;;;;;;;6.07;4.60;;;-1.00;99.90;;;;;;5034708;28;20198;-94
2023/04/06 02:44:56;;;;;;;4.35;3.88;;;-1.10;99.90;;;;;;5038047;28;20198;-94
2023/04/06 02:47:23;;;;;;;5.50;4.13;;;-1.10;99.90;;;;;;5037949;28;20211;-94
2023/04/06 02:49:51;;;;;;;6.60;4.75;;;-1.10;99.90;;;;;;5029974;28;20259;-93
2023/04/06 02:52:18;;;;;;;10.90;4.40;;;-1.10;99.90;;;;;;5018008;28;20211;-93
2023/04/06 02:54:45;;;;;;;5.68;3.97;;;-1.10;99.90;;;;;;5018229;28;20211;-94
2023/04/06 02:57:12;;;;;;;6.70;4.20;;;-1.10;99.90;;;;;;5018087;28;20189;-94
2023/04/06 02:59:39;;;;;;;6.97;4.10;;;-1.10;99.90;;;;;;5018007;28;20267;-94
2023/04/06 03:02:06;;;;;;;7.43;4.10;;;-1.10;99.90;;;;;;5018119;28;20191;-93
2023/04/06 03:04:32;;;;;;;6.72;4.53;;;-1.10;99.90;;;;;;5018011;28;20206;-94
2023/04/06 03:07:01;;;;;;;4.97;3.90;;;-1.10;99.90;;;;;;5017973;28;20229;-95
2023/04/06 03:09:28;;;;;;;6.55;4.50;;;-1.10;99.90;;;;;;5017677;28;20222;-95
2023/04/06 03:11:55;;;;;;;6.00;4.80;;;-1.00;99.90;;;;;;5018055;28;20191;-94
2023/04/06 03:14:22;;;;;;;6.40;4.60;;;-1.00;99.90;;;;;;5017927;28;20222;-93
2023/04/06 03:16:49;;;;;;;6.47;3.92;;;-1.10;99.90;;;;;;5017970;28;20187;-94
2023/04/06 03:19:16;;;;;;;5.22;4.10;;;-1.10;99.90;;;;;;5017860;28;20191;-94
2023/04/06 03:21:43;;;;;;;6.63;4.70;;;-1.10;99.90;;;;;;5017846;28;20193;-94
2023/04/06 03:24:12;;;;;;;6.65;4.40;;;-1.20;99.90;;;;;;5017685;28;20203;-94
2023/04/06 03:26:39;;;;;;;12.05;4.80;;;-1.20;99.90;;;;;;5017645;28;20180;-94
2023/04/06 03:29:08;;;;;;;8.38;4.43;;;-1.20;99.90;;;;;;5017462;28;20210;-93
2023/04/06 03:31:35;;;;;;;7.75;4.32;;;-1.20;99.90;;;;;;4994195;28;20176;-95
2023/04/06 03:34:02;;;;;;;5.25;3.70;;;-1.20;99.90;;;;;;4987386;28;20240;-93
2023/04/06 03:36:30;;;;;;;6.90;4.72;;;-1.20;99.90;;;;;;4987105;28;20252;-95
2023/04/06 03:38:59;;;;;;;9.80;5.72;;;-1.20;99.90;;;;;;4988401;28;20198;-94
2023/04/06 03:41:27;;;;;;;6.00;4.00;;;-1.20;99.90;;;;;;4983750;28;20271;-95
2023/04/06 03:43:54;;;;;;;5.50;4.53;;;-1.20;99.90;;;;;;4989008;28;20187;-95
2023/04/06 03:48:49;;;;;;;5.63;4.45;;;-1.30;99.90;;;;;;5026982;28;20218;-66
2023/04/06 03:51:16;;;;;;;6.28;4.90;;;-1.30;99.90;;;;;;5028474;28;20256;-66
2023/04/06 03:53:43;;;;;;;4.55;4.15;;;-1.30;99.90;;;;;;5026254;28;20201;-65
2023/04/06 03:56:09;;;;;;;4.13;3.72;;;-1.30;99.90;;;;;;5028374;28;20221;-65
2023/04/06 03:58:37;;;;;;;7.65;4.47;;;-1.30;99.90;;;;;;5028311;28;20240;-65
2023/04/06 04:01:04;;;;;;;6.30;4.00;;;-1.30;99.90;;;;;;5028764;28;20209;-66
2023/04/06 04:03:31;;;;;;;5.72;3.85;;;-1.40;99.90;;;;;;5028481;28;20205;-66
2023/04/06 04:05:58;;;;;;;10.38;3.45;;;-1.40;99.90;;;;;;5028281;28;20218;-65
2023/04/06 04:08:25;;;;;;;7.00;4.40;;;-1.40;99.90;;;;;;5028240;28;20198;-65
2023/04/06 04:10:52;;;;;;;6.68;4.97;;;-1.40;99.90;;;;;;5029730;28;20225;-64
2023/04/06 04:13:20;;;;;;;6.82;5.10;;;-1.30;99.90;;;;;;5031910;28;20578;-68
2023/04/06 04:15:48;;;;;;;7.88;4.13;;;-1.30;99.90;;;;;;5030705;28;20313;-66
2023/04/06 04:18:15;;;;;;;5.10;3.78;;;-1.30;99.90;;;;;;5025782;28;20631;-66
2023/04/06 04:20:41;;;;;;;7.30;5.90;;;-1.30;99.90;;;;;;5027709;28;20503;-67
2023/04/06 04:23:08;;;;;;;7.90;4.72;;;-1.30;99.90;;;;;;5029518;28;20198;-67
2023/04/06 04:25:35;;;;;;;7.70;4.97;;;-1.30;99.90;;;;;;5028855;28;20212;-67
2023/04/06 04:28:01;;;;;;;5.72;4.32;;;-1.30;99.90;;;;;;5029446;28;20203;-67
2023/04/06 04:30:28;;;;;;;5.38;4.68;;;-1.20;99.90;;;;;;5028948;28;20217;-67
2023/04/06 04:32:56;;;;;;;8.90;5.80;;;-1.20;99.90;;;;;;5027591;28;20220;-66
2023/04/06 04:35:23;;;;;;;8.63;5.25;;;-1.20;99.90;;;;;;5044366;28;20198;-67
2023/04/06 04:37:49;;;;;;;4.45;4.03;;;-1.20;99.90;;;;;;5049099;28;20201;-67
2023/04/06 04:40:17;;;;;;;8.18;4.60;;;-1.20;99.90;;;;;;5049103;28;20613;-67
2023/04/06 04:42:43;;;;;;;10.38;4.30;;;-1.30;99.90;;;;;;5049094;28;20872;-67
2023/04/06 04:45:11;;;;;;;6.68;4.78;;;-1.30;99.90;;;;;;5049489;28;20205;-66
2023/04/06 04:47:38;;;;;;;8.93;4.95;;;-1.30;99.90;;;;;;5049275;28;20229;-66
2023/04/06 04:50:07;;;;;;;6.43;4.00;;;-1.30;99.90;;;;;;5038234;28;20275;-67
2023/04/06 04:52:33;;;;;;;9.75;4.65;;;-1.30;99.90;;;;;;5032900;28;20438;-67
2023/04/06 04:55:00;;;;;;;4.93;3.47;;;-1.40;99.90;;;;;;5025183;28;20197;-66
2023/04/06 04:57:27;;;;;;;5.60;4.43;;;-1.40;99.90;;;;;;5032666;28;20636;-66
2023/04/06 04:59:53;;;;;;;6.38;4.85;;;-1.30;99.90;;;;;;5032388;28;20767;-66
2023/04/06 05:02:20;;;;;;;7.10;5.28;;;-1.40;99.90;;;;;;5032841;28;20198;-67
2023/04/06 05:04:47;;;;;;;5.10;4.20;;;-1.30;99.90;;;;;;5050712;28;20262;-67
2023/04/06 05:07:18;;;;;;;6.53;4.45;;;-1.30;99.90;;;;;;5052664;28;20225;-67
2023/04/06 05:09:45;;;;;;;6.30;4.53;;;-1.30;99.90;;;;;;5052080;28;20323;-67
2023/04/06 05:12:11;;;;;;;5.70;4.90;;;-1.30;99.90;;;;;;5052437;28;20197;-67
2023/04/06 05:14:38;;;;;;;8.70;4.57;;;-1.30;99.90;;;;;;5035292;28;20264;-67
2023/04/06 05:17:05;;;;;;;6.63;4.75;;;-1.30;99.90;;;;;;5032432;28;20233;-67
2023/04/06 05:19:32;;;;;;;5.43;4.45;;;-1.30;99.90;;;;;;5031908;28;20209;-66
2023/04/06 05:21:58;;;;;;;7.20;4.25;;;-1.20;99.90;;;;;;5048870;28;20210;-66
2023/04/06 05:24:26;;;;;;;6.95;4.57;;;-1.20;99.90;;;;;;5032320;28;20206;-66
2023/04/06 05:26:53;;;;;;;6.07;4.55;;;-1.20;99.90;;;;;;5031893;28;20279;-66
2023/04/06 05:29:21;;;;;;;7.65;5.45;;;-1.10;99.90;;;;;;5046331;28;20205;-66
2023/04/06 05:31:47;;;;;;;8.68;5.05;;;-1.10;99.90;;;;;;5043422;28;20224;-66
2023/04/06 05:34:14;;;;;;;6.30;4.10;;;-1.10;99.90;;;;;;5052011;28;20695;-66
2023/04/06 05:36:41;;;;;;;6.20;4.28;;;-1.00;99.90;;;;;;5034385;28;20222;-66
2023/04/06 05:39:07;;;;;;;5.20;4.40;;;-1.00;99.90;;;;;;5031868;28;20229;-66
2023/04/06 05:41:36;;;;;;;6.45;4.60;;;-0.90;99.90;;;;;;5031921;28;20205;-66
2023/04/06 05:44:02;;;;;;;6.32;5.10;;;-0.90;99.90;;;;;;5024028;28;20293;-66
2023/04/06 05:46:29;;;;;;;9.60;5.32;;;-0.80;99.90;;;;;;5031516;28;20230;-66
2023/04/06 05:48:56;;;;;;;8.43;4.45;;;-0.70;99.90;;;;;;5031540;28;20260;-67
2023/04/06 05:51:23;;;;;;;7.85;5.13;;;-0.60;99.90;;;;;;5031826;28;20218;-67
2023/04/06 05:53:49;;;;;;;5.75;4.13;;;-0.50;99.90;;;;;;5031592;28;20680;-66
2023/04/06 05:56:16;;;;;;;6.55;4.68;;;-0.40;99.90;;;;;;5045265;28;20578;-66
2023/04/06 05:58:44;;;;;;;6.38;4.75;;;-0.30;99.90;;;;;;5050897;28;20209;-66
2023/04/06 06:01:11;;;;;;;8.57;5.38;;;-0.30;99.90;;;;;;5050861;28;20192;-66
2023/04/06 06:03:38;;;;;;;5.95;4.45;;;-0.20;99.90;;;;;;5051296;28;20564;-66
2023/04/06 06:06:05;;;;;;;5.95;4.60;;;-0.10;99.90;;;;;;5051375;28;20479;-66
2023/04/06 06:08:32;;;;;;;5.25;4.72;;;0.00;99.90;;;;;;5050931;28;20672;-66
2023/04/06 06:10:58;;;;;;;5.72;4.25;;;0.00;99.90;;;;;;5051122;28;20278;-66
2023/04/06 06:13:25;;;;;;;5.32;4.15;;;0.10;99.90;;;;;;5051330;28;20201;-66
2023/04/06 06:15:53;;;;;;;7.05;4.22;;;0.20;99.90;;;;;;5050778;28;20229;-66
2023/04/06 06:18:20;;;;;;;8.73;5.65;;;0.30;99.90;;;;;;5050981;28;20204;-66
2023/04/06 06:20:46;;;;;;;7.88;4.88;;;0.50;99.90;;;;;;5050847;28;20202;-66
2023/04/06 06:23:13;;;;;;;9.10;5.15;;;0.60;99.90;;;;;;5046434;28;20209;-66
2023/04/06 06:25:40;;;;;;;8.27;5.68;;;0.70;99.90;;;;;;5030747;28;20237;-67
2023/04/06 06:28:07;;;;;;;6.35;5.45;;;0.80;99.90;;;;;;5035214;28;20194;-66
2023/04/06 06:30:33;;;;;;;8.45;5.63;;;1.00;99.90;;;;;;5050580;28;20303;-66
2023/04/06 06:33:01;;;;;;;8.75;5.72;;;1.10;99.90;;;;;;5050878;28;20213;-66
2023/04/06 06:35:29;;;;;;;7.57;6.18;;;1.20;99.90;;;;;;5050725;28;20292;-66
2023/04/06 06:37:56;;;;;;;10.45;5.72;;;1.40;99.90;;;;;;5032073;28;20213;-66
2023/04/06 06:40:23;;;;;;;6.18;5.22;;;1.60;99.90;;;;;;5044724;28;20204;-66
2023/04/06 06:42:51;;;;;;;6.05;5.05;;;1.70;99.90;;;;;;5050589;28;20201;-66
2023/04/06 06:45:18;;;;;;;7.80;6.13;;;1.90;99.90;;;;;;5050734;28;20229;-66
2023/04/06 06:47:44;;;;;;;8.32;6.50;;;2.00;99.90;;;;;;5050026;28;20565;-66
2023/04/06 06:50:13;;;;;;;7.00;5.95;;;2.20;99.90;;;;;;5050379;28;20684;-66
2023/04/06 06:52:41;;;;;;;7.70;5.75;;;2.30;99.90;;;;;;5042706;28;20202;-67
2023/04/06 06:55:09;;;;;;;8.35;5.65;;;2.50;99.90;;;;;;5031385;28;20637;-66
2023/04/06 06:57:35;;;;;;;8.50;5.80;;;2.70;99.90;;;;;;5030255;28;20309;-66
2023/04/06 07:00:03;;;;;;;7.35;5.78;;;2.90;99.90;;;;;;5047299;28;20209;-67
2023/04/06 07:02:30;;;;;;;8.35;6.28;;;3.10;99.90;;;;;;5030373;28;20263;-66
2023/04/06 07:04:56;;;;;;;5.03;4.50;;;3.30;99.90;;;;;;5030659;28;20289;-67
2023/04/06 07:07:25;;;;;;;10.55;4.95;;;3.50;98.60;;;;;;5030699;28;20221;-66
2023/04/06 07:09:51;;;;;;;7.82;5.40;;;3.70;98.30;;;;;;5039582;28;20201;-66
2023/04/06 07:12:18;;;;;;;10.02;5.28;;;3.90;98.90;;;;;;5029946;28;20589;-66
2023/04/06 07:14:45;;;;;;;5.82;4.75;;;4.10;98.60;;;;;;5030414;28;20205;-67
2023/04/06 07:17:11;;;;;;;6.13;4.45;;;4.30;95.80;;;;;;5030335;28;20592;-67
2023/04/06 07:19:38;;;;;;;5.55;4.88;;;4.50;95.80;;;;;;5029894;28;20197;-67
2023/04/06 07:22:05;;;;;;;6.80;5.20;;;4.60;95.20;;;;;;5041472;28;20201;-67
2023/04/06 07:24:33;;;;;;;5.72;5.13;;;4.80;95.10;;;;;;5050138;28;20201;-67
2023/04/06 07:27:00;;;;;;;7.00;5.05;;;5.00;94.90;;;;;;5039314;28;20712;-66
2023/04/06 07:29:27;;;;;;;5.50;5.00;;;5.10;93.30;;;;;;5029960;28;20194;-66
2023/04/06 07:31:55;;;;;;;7.13;5.13;;;5.10;93.40;;;;;;5047798;28;20731;-66
2023/04/06 07:34:22;;;;;;;6.65;4.53;;;5.10;93.30;;;;;;5050004;28;20229;-67
2023/04/06 07:36:48;;;;;;;10.15;4.93;;;5.30;93.30;;;;;;5049465;28;20327;-67
2023/04/06 07:39:15;;;;;;;7.30;5.25;;;5.50;93.60;;;;;;5049696;28;20201;-67
2023/04/06 07:41:43;;;;;;;6.55;4.38;;;5.60;92.60;;;;;;5033593;28;20201;-67
2023/04/06 07:44:10;;;;;;;7.32;4.93;;;5.80;92.40;;;;;;5030255;28;20198;-67
2023/04/06 07:46:36;;;;;;;7.15;4.43;;;6.10;92.90;;;;;;5029586;28;20222;-67
2023/04/06 07:49:03;;;;;;;6.85;5.30;;;6.30;91.80;;;;;;5029601;28;20684;-67
2023/04/06 07:51:30;;;;;;;7.20;5.85;;;6.60;91.10;;;;;;5029856;28;20221;-67
2023/04/06 07:53:57;;;;;;;6.93;5.05;;;6.90;90.70;;;;;;5029973;28;20197;-67
2023/04/06 07:56:24;;;;;;;5.95;4.65;;;7.50;91.20;;;;;;5029909;28;20308;-67
2023/04/06 07:58:55;;;;;;;6.78;5.13;;;8.20;91.10;;;;;;5029676;28;20263;-67
2023/04/06 08:01:22;;;;;;;6.10;4.90;;;8.80;90.70;;;;;;5030185;28;20608;-67
2023/04/06 08:03:48;;;;;;;5.75;4.97;;;9.40;87.10;;;;;;5038434;28;20274;-67
2023/04/06 08:06:15;;;;;;;7.93;5.07;;;9.50;83.60;;;;;;5037435;28;20237;-67
2023/04/06 08:08:42;;;;;;;9.07;5.45;;;9.60;84.10;;;;;;5029500;28;20577;-67
2023/04/06 08:11:09;;;;;;;7.63;5.70;;;9.80;83.30;;;;;;5049418;28;20213;-67
2023/04/06 08:13:35;;;;;;;9.00;5.10;;;10.30;85.50;;;;;;5042769;28;20202;-67
2023/04/06 08:16:04;;;;;;;6.82;4.75;;;11.00;82.80;;;;;;5045776;28;20248;-67
2023/04/06 08:18:30;;;;;;;7.90;5.43;;;12.00;83.80;;;;;;5044440;28;20256;-67
2023/04/06 08:20:57;;;;;;;6.32;5.18;;;12.70;81.90;;;;;;5041764;28;20193;-67
2023/04/06 08:23:24;;;;;;;6.28;5.50;;;13.10;77.10;;;;;;5036657;28;20197;-67
2023/04/06 08:25:53;;;;;;;6.63;5.80;;;13.40;75.20;;;;;;5042154;28;20233;-67
2023/04/06 08:28:20;;;;;;;6.50;4.53;;;13.00;75.90;;;;;;5040471;28;20459;-67
2023/04/06 08:30:47;;;;;;;7.87;6.03;;;13.00;75.10;;;;;;5049722;28;20463;-67
2023/04/06 08:33:15;;;;;;;6.80;5.97;;;13.40;74.50;;;;;;5041419;28;20468;-68
2023/04/06 08:35:42;;;;;;;5.90;5.30;;;14.10;74.90;;;;;;5033372;28;20563;-67
2023/04/06 08:38:09;;;;;;;5.97;5.37;;;14.20;71.40;;;;;;5044762;28;20459;-67
2023/04/06 08:41:01;;;;;;;9.20;5.70;;;14.30;72.30;;;;;;5068317;22;20554;-94
2023/04/06 08:43:32;;;;;;;5.80;5.17;;;14.80;71.00;;;;;;5030058;28;20477;-92
2023/04/06 08:46:19;;;;;;;7.33;5.80;;;15.10;71.60;;;;;;5035732;28;20974;-92
2023/04/06 08:49:07;;;;;;;6.70;5.90;;;15.60;69.40;;;;;;5047851;28;20518;-91
2023/04/06 08:51:49;;;;;;;7.03;5.63;;;15.80;66.40;;;;;;5043781;28;20557;-92
2023/04/06 08:54:37;;;;;;;6.30;5.60;;;15.70;65.70;;;;;;5042473;28;20467;-92
2023/04/06 08:57:06;;;;;;;7.03;5.77;;;15.90;67.90;;;;;;5045781;28;20478;-94
2023/04/06 08:59:36;;;;;;;6.23;4.63;;;16.30;67.20;;;;;;5047480;28;20557;-93
2023/04/06 09:05:45;;;;;;;5.83;4.77;;;18.00;66.10;;;;;;5037995;28;20447;-94
2023/04/06 09:08:14;;;;;;;6.67;5.60;;;17.90;65.80;;;;;;5046850;28;20471;-93
2023/04/06 09:10:41;;;;;;;6.27;5.00;;;18.20;62.10;;;;;;5046372;28;20555;-93
2023/04/06 09:16:00;;;;;;;5.53;4.37;;;18.40;64.10;;;;;;5044903;28;20603;-94
2023/04/06 09:18:30;;;;;;;5.90;4.70;;;18.90;63.50;;;;;;5046286;28;20463;-93
2023/04/06 09:21:04;;;;;;;5.63;4.80;;;19.00;60.60;;;;;;5044496;28;20545;-93
2023/04/06 09:23:32;;;;;;;4.27;3.87;;;19.60;61.10;;;;;;5048704;28;20471;-92
2023/04/06 09:26:10;;;;;;;5.87;5.37;;;19.80;59.50;;;;;;5044038;28;20483;-93
2023/04/06 09:28:45;;;;;;;4.60;4.20;;;20.50;60.70;;;;;;5044729;28;20551;-93
2023/04/06 09:31:12;;;;;;;6.00;4.93;;;20.80;58.30;;;;;;5041346;28;20490;-93
2023/04/06 09:33:39;;;;;;;6.20;4.67;;;20.40;58.00;;;;;;5040572;28;20460;-92
2023/04/06 09:36:09;;;;;;;8.93;4.60;;;20.60;60.70;;;;;;5041133;28;20468;-92
2023/04/06 09:38:37;;;;;;;6.60;5.40;;;20.60;58.80;;;;;;5043508;28;20534;-92
2023/04/06 09:41:04;;;;;;;6.50;5.20;;;21.00;57.20;;;;;;5039304;28;20563;-91
2023/04/06 09:43:31;;;;;;;4.93;4.50;;;20.90;57.40;;;;;;5038479;28;20479;-92
2023/04/06 09:46:02;;;;;;;5.30;4.77;;;21.30;56.60;;;;;;5040392;28;20475;-92
2023/04/06 09:48:32;;;;;;;5.63;5.10;;;20.90;55.90;;;;;;5039403;28;20736;-92
2023/04/06 09:51:04;;;;;;;6.07;5.10;;;20.90;57.80;;;;;;5039607;28;20547;-92
2023/04/06 09:53:36;;;;;;;5.00;4.60;;;21.40;55.60;;;;;;5042619;28;20466;-92
2023/04/06 09:56:04;;;;;;;5.30;4.80;;;21.40;55.80;;;;;;5042008;28;20479;-93
2023/04/06 09:58:35;;;;;;;5.40;4.67;;;21.50;56.50;;;;;;5041403;28;20563;-93
2023/04/06 10:01:08;;;;;;;5.97;5.10;;;21.80;57.50;;;;;;5045242;28;20492;-93
2023/04/06 10:03:45;;;;;;;4.57;4.17;;;22.60;56.20;;;;;;5045640;28;20492;-94
2023/04/06 10:06:15;;;;;;;5.30;4.80;;;22.50;57.40;;;;;;5048169;28;20488;-92
2023/04/06 10:08:47;;;;;;;4.87;4.37;;;22.70;56.00;;;;;;5049729;28;21155;-93
2023/04/06 10:11:14;;;;;;;5.80;5.20;;;22.80;56.20;;;;;;5046883;28;20507;-91
2023/04/06 10:13:41;;;;;;;6.07;5.10;;;22.90;56.50;;;;;;5044621;28;20466;-93
2023/04/06 10:16:09;;;;;;;5.63;5.13;;;23.30;55.90;;;;;;5048099;28;20452;-92
2023/04/06 10:18:39;;;;;;;7.03;4.80;;;22.80;54.70;;;;;;5042869;28;20464;-93
2023/04/06 10:21:10;;;;;;;5.43;4.93;;;21.70;55.30;;;;;;5041556;28;20479;-92
2023/04/06 10:23:45;;;;;;;6.53;5.27;;;21.70;54.50;;;;;;5047825;28;20495;-92
2023/04/06 10:26:16;;;;;;;6.90;5.17;;;21.70;56.20;;;;;;5047392;28;20522;-92
2023/04/06 10:28:44;;;;;;;5.10;4.60;;;21.70;54.50;;;;;;5046349;28;20456;-94
2023/04/06 10:31:11;;;;;;;5.87;5.27;;;21.90;56.10;;;;;;5044669;28;20903;-93
2023/04/06 10:33:38;;;;;;;5.70;4.73;;;21.50;56.30;;;;;;5047644;28;20461;-94
2023/04/06 10:36:12;;;;;;;5.80;5.00;;;21.80;55.90;;;;;;5045590;28;20559;-93
2023/04/06 10:38:40;;;;;;;5.73;5.07;;;22.20;57.70;;;;;;5043664;28;20463;-91
2023/04/06 10:41:08;;;;;;;6.00;5.20;;;22.90;55.60;;;;;;5046841;28;20515;-94
2023/04/06 10:43:38;;;;;;;5.80;4.70;;;23.30;56.30;;;;;;5048203;28;20445;-93
2023/04/06 10:46:06;;;;;;;6.37;4.70;;;23.90;55.70;;;;;;5049621;28;20539;-93
2023/04/06 10:48:41;;;;;;;6.90;5.33;;;23.50;54.10;;;;;;5049246;28;20463;-94
2023/04/06 10:51:13;;;;;;;5.90;5.30;;;22.90;54.80;;;;;;5041366;28;20494;-91
2023/04/06 10:53:42;;;;;;;8.07;5.30;;;22.70;54.80;;;;;;5043046;28;20449;-94
2023/04/06 10:56:12;;;;;;;5.53;5.03;;;22.40;53.90;;;;;;5041229;28;20488;-94
2023/04/06 10:58:46;;;;;;;6.10;4.87;;;22.30;53.90;;;;;;5043222;28;20578;-93
2023/04/06 11:01:14;;;;;;;5.23;4.73;;;23.10;54.80;;;;;;5053372;28;20464;-95
2023/04/06 11:03:59;;;;;;;4.93;4.43;;;23.20;52.60;;;;;;5057438;28;20437;-94
2023/04/06 11:06:28;;;;;;;6.80;5.00;;;23.20;53.30;;;;;;5057121;28;20447;-95
2023/04/06 11:08:56;;;;;;;5.10;4.40;;;23.20;54.30;;;;;;5057733;28;20448;-95
2023/04/06 11:11:26;;;;;;;4.57;4.20;;;23.30;52.40;;;;;;5057085;28;20544;-95
2023/04/06 11:13:55;;;;;;;5.20;4.67;;;23.00;51.20;;;;;;5057440;28;20464;-95
2023/04/06 11:16:24;;;;;;;5.30;4.70;;;23.50;54.20;;;;;;5057220;28;20471;-95
2023/04/06 11:18:52;;;;;;;6.70;4.90;;;24.00;53.10;;;;;;5057327;28;20440;-95
2023/04/06 11:21:20;;;;;;;5.00;4.50;;;24.30;53.00;;;;;;5056009;28;20470;-93
2023/04/06 11:23:47;;;;;;;8.30;5.00;;;23.60;50.10;;;;;;5045330;28;20555;-94
2023/04/06 11:26:14;;;;;;;6.67;4.70;;;22.50;52.70;;;;;;5043917;28;20452;-93
2023/04/06 11:28:42;;;;;;;5.83;4.60;;;23.10;53.80;;;;;;5048493;28;20488;-94
2023/04/06 11:31:12;;;;;;;5.90;4.57;;;23.80;53.60;;;;;;5051678;28;20466;-94
2023/04/06 11:33:39;;;;;;;6.67;4.90;;;24.20;53.00;;;;;;5049322;28;20488;-94
2023/04/06 11:36:07;;;;;;;4.30;3.93;;;24.30;53.10;;;;;;5047905;28;20456;-94
2023/04/06 11:38:35;;;;;;;4.63;4.07;;;24.50;52.90;;;;;;5049385;28;20549;-94
2023/04/06 11:41:02;;;;;;;4.77;4.30;;;24.60;54.20;;;;;;5049774;28;20493;-92
2023/04/06 11:43:30;;;;;;;5.00;4.50;;;25.10;50.20;;;;;;5048794;28;20487;-95
2023/04/06 11:46:02;;;;;;;6.50;4.37;;;24.40;49.70;;;;;;5050494;28;20469;-93
2023/04/06 11:48:31;;;;;;;5.53;4.50;;;24.20;52.10;;;;;;5050084;28;20460;-94
2023/04/06 11:51:00;;;;;;;4.97;4.47;;;24.00;52.60;;;;;;5047806;28;20576;-94
2023/04/06 11:53:27;;;;;;;4.77;4.37;;;23.50;52.30;;;;;;5046236;28;20484;-94
2023/04/06 11:55:54;;;;;;;6.07;4.57;;;23.10;53.10;;;;;;5049422;28;20499;-94
2023/04/06 11:58:21;;;;;;;4.57;4.17;;;22.80;53.40;;;;;;5050778;28;20535;-94
2023/04/06 12:00:49;;;;;;;5.10;4.47;;;22.60;52.10;;;;;;5054971;28;20587;-95
2023/04/06 12:03:18;;;;;;;5.43;4.10;;;22.70;53.80;;;;;;5056562;28;20520;-94
2023/04/06 12:05:46;;;;;;;4.33;3.80;;;22.90;53.50;;;;;;5059655;28;20487;-94
2023/04/06 12:08:31;;;;;;;5.13;4.63;;;22.80;53.30;;;;;;5053034;28;20491;-94
2023/04/06 12:11:01;;;;;;;5.23;4.33;;;22.50;52.50;;;;;;5053514;28;20586;-94
2023/04/06 12:13:28;;;;;;;5.03;4.63;;;22.10;53.10;;;;;;5049095;28;20592;-93
2023/04/06 12:15:55;;;;;;;5.10;4.43;;;22.10;52.30;;;;;;5047404;28;20460;-94
2023/04/06 12:18:21;;;;;;;7.50;4.70;;;21.80;52.50;;;;;;5047777;28;20448;-92
2023/04/06 12:20:50;;;;;;;5.23;4.43;;;21.50;55.00;;;;;;5046523;28;20503;-93
2023/04/06 12:23:16;;;;;;;5.17;4.27;;;22.00;52.70;;;;;;5045410;28;20484;-93
2023/04/06 12:25:44;;;;;;;4.90;4.40;;;21.70;51.50;;;;;;5046994;28;20554;-93
2023/04/06 12:28:11;;;;;;;5.20;4.70;;;22.00;53.90;;;;;;5045192;28;20981;-93
2023/04/06 12:30:37;;;;;;;6.27;4.50;;;22.50;52.90;;;;;;5045754;28;21024;-93
2023/04/06 12:33:21;;;;;;;4.97;4.27;;;22.90;51.60;;;;;;5047230;28;20487;-93
2023/04/06 12:35:49;;;;;;;5.10;4.10;;;23.00;52.60;;;;;;5048330;28;20465;-94
2023/04/06 12:38:16;;;;;;;5.00;4.10;;;22.70;51.20;;;;;;5046184;28;20456;-93
2023/04/06 12:40:43;;;;;;;5.33;4.30;;;22.00;50.70;;;;;;5058266;28;20488;-94
2023/04/06 12:43:13;;;;;;;5.07;4.57;;;22.10;53.20;;;;;;5044910;28;20487;-93
2023/04/06 12:45:40;;;;;;;5.90;4.40;;;22.10;51.50;;;;;;5044224;28;20464;-93
2023/04/06 12:48:20;;;;;;;4.67;4.27;;;22.00;50.80;;;;;;5042864;28;20460;-92
2023/04/06 12:51:30;;;;;;;5.43;4.37;;;21.50;51.30;;;;;;5039750;28;20484;-93
2023/04/06 12:57:01;;;;;;;4.90;3.83;;;21.50;52.40;;;;;;5036538;28;20471;-93
2023/04/06 13:00:02;;;;;;;5.30;4.60;;;21.10;52.70;;;;;;5038170;28;20460;-93
2023/04/06 13:02:30;;;;;;;5.10;4.23;;;20.60;52.30;;;;;;5016848;28;20455;-93
2023/04/06 13:05:51;;;;;;;4.40;4.00;;;20.00;53.30;;;;;;5041784;28;20988;-93